Погода Асанна 2 недели

Атырауская область, Казахстан

25 июля-07 августа
  • 25июля
    Сегодня
    +16°
    +27°
    Практически безоблачно
    ВремяПогодаТемператураВлажностьДавлениеВетер, м/сВероятность осадков
    02:00Ясно и безоблачно+17°C76 %751 мм4.9 м/с12 %
    05:00Ясно и безоблачно+16°C79 %751 мм4.5 м/с4 %
    08:00Ясно и безоблачно+17°C72 %751 мм4.8 м/с2 %
    11:00Ясно и безоблачно+23°C41 %751 мм5.8 м/с2 %
    14:00Практически безоблачно+25°C34 %751 мм5.7 м/с2 %
    17:00Практически безоблачно+27°C33 %751 мм5.6 м/с2 %
    20:00Ясно и безоблачно+26°C37 %751 мм5.5 м/с3 %
    23:00Ясно и безоблачно+22°C54 %752 мм2.6 м/с2 %
  • 26июля
    Пятница
    +14°
    +28°
    Ясно и безоблачно
    ВремяПогодаТемператураВлажностьДавлениеВетер, м/сВероятность осадков
    02:00Ясно и безоблачно+20°C65 %752 мм2.3 м/с2 %
    05:00Ясно и безоблачно+18°C75 %753 мм2.8 м/с2 %
    08:00Ясно и безоблачно+18°C70 %754 мм2.5 м/с2 %
    11:00Ясно и безоблачно+24°C41 %754 мм2.1 м/с2 %
    14:00Ясно и безоблачно+26°C31 %754 мм3.1 м/с2 %
    17:00Ясно и безоблачно+27°C29 %754 мм4.3 м/с2 %
    20:00Ясно и безоблачно+25°C29 %755 мм4.6 м/с2 %
    23:00Ясно и безоблачно+22°C38 %756 мм1.4 м/с2 %
  • 27июля
    Суббота
    +14°
    +27°
    Ясно и безоблачно
    ВремяПогодаТемператураВлажностьДавлениеВетер, м/сВероятность осадков
    02:00Небольшая облачность+19°C49 %757 мм3.6 м/с2 %
    05:00Ясно и безоблачно+16°C63 %757 мм2.0 м/с2 %
    08:00Ясно и безоблачно+16°C64 %758 мм2.2 м/с2 %
    11:00Ясно и безоблачно+23°C44 %759 мм3.4 м/с2 %
    14:00Ясно и безоблачно+25°C34 %759 мм4.2 м/с2 %
    17:00Практически безоблачно+27°C28 %759 мм3.6 м/с2 %
    20:00Ясно и безоблачно+26°C30 %760 мм3.7 м/с2 %
    23:00Ясно и безоблачно+22°C41 %761 мм0.9 м/с2 %
  • 28июля
    Воскресенье
    +17°
    +30°
    Пасмурно, сплошная облачность
    ВремяПогодаТемператураВлажностьДавлениеВетер, м/сВероятность осадков
    02:00Ясно и безоблачно+19°C59 %761 мм2.0 м/с2 %
    05:00Практически безоблачно+16°C68 %761 мм2.4 м/с2 %
    08:00Ясно и безоблачно+17°C59 %762 мм2.2 м/с2 %
    11:00Ясно и безоблачно+26°C29 %762 мм3.7 м/с2 %
    14:00Пасмурно, сплошная облачность+28°C25 %762 мм4.4 м/с2 %
    17:00Облачно с прояснениями+29°C24 %761 мм4.6 м/с2 %
    20:00Облачно с прояснениями+28°C25 %760 мм4.4 м/с2 %
    23:00Ясно и безоблачно+22°C44 %760 мм2.4 м/с2 %
  • 29июля
    Понедельник
    +22°
    +32°
    Ясно и безоблачно
    ВремяПогодаТемператураВлажностьДавлениеВетер, м/сВероятность осадков
    02:00Практически безоблачно+20°C53 %760 мм2.1 м/с2 %
    05:00Ясно и безоблачно+18°C52 %759 мм2.4 м/с2 %
    08:00Ясно и безоблачно+19°C45 %759 мм3.8 м/с3 %
    11:00Ясно и безоблачно+25°C29 %759 мм4.8 м/с4 %
    14:00Ясно и безоблачно+29°C23 %758 мм7.3 м/с2 %
    17:00Ясно и безоблачно+32°C23 %756 мм7.1 м/с4 %
    20:00Ясно и безоблачно+30°C26 %755 мм5.3 м/с3 %
    23:00Практически безоблачно+24°C40 %755 мм1.8 м/с2 %
Мы используем cookies
Соглашаюсь